Saskatoon John G. Diefenbaker International Airport
CYXE : rendu visible

Aérodrome :











RETROUVEZ-NOUS SUR...

 
LOGIN :

S'inscrire | Disclaimer

   EN    FR    IT 

 









Légende :    VFR   VFR Marginal   IFR   IFR Intensif   IFR Très Intensif
Visi : 
Plafond : 
>= 8 km
>= 3000ft
5 à 8 km
1000 à 3000 ft
1500m à 5 km
500 à 1000 ft
800 à 1500m
200 à 500 ft
< 800m
< 200 ft
Symboles :   Orages  Brouillard  Fortes neiges  Fortes précipitations  Vent > 20 kt






- Altitude de l'aérodrome : 1653 ft
- Code IATA : YXE


CYXE - Saskatoon John G. Diefenbaker International

DERNIER METAR :
  • 190500Z 23006KT 15SM SKC M29/M32 A3053 RMK SLP408

METARs EXPIRÉS :
  • 190400Z 22005KT 15SM SKC M28/M30 A3052 RMK SLP407
  • 190300Z 23005KT 15SM SKC M28/M31 A3053 RMK SLP412

TAF TAF CYXE
Valide du 19 à 00h jusqu'au 20 à 00h UTC


182338Z 1900/1924 25008KT P6SM SKC
BECMG 1903/1905 20006KT
BECMG 1911/1913 18010KT
FM191800 30012KT P6SM FEW060 RMK NXT FCST BY 190600Z



MET'MAP, la Météo Aéronautique d'un coup d'oeil ! - Copyright ORBIFLY Décembre 2007 - Disclaimer

ORBIFLY MET'MAP TEAM :

Programmation & Développement : Alexandra Zaïnal
Sur une idée originale de : Baudouin d'Aumeries
Assistance à la programmation : Marc-Olivier Méhu
Soutien technique & logistique : Manuel Goepfert

Contact : metmap@orbifly.com




SOURCES & CREDITS :

   NOAA       Earth
Advisory